sensor_id;sensor_type;location;lat;lon;timestamp;P1;durP1;ratioP1;P2;durP2;ratioP2
50555;SDS011;36508;52.512;13.450;2023-07-22T00:01:13;6.93;;;6.53;;
50555;SDS011;36508;52.512;13.450;2023-07-22T00:03:39;7.93;;;7.10;;
50555;SDS011;36508;52.512;13.450;2023-07-22T00:06:08;7.50;;;7.00;;
50555;SDS011;36508;52.512;13.450;2023-07-22T00:08:35;7.20;;;6.80;;
50555;SDS011;36508;52.512;13.450;2023-07-22T00:11:02;6.33;;;5.93;;
50555;SDS011;36508;52.512;13.450;2023-07-22T00:13:28;11.33;;;10.33;;
50555;SDS011;36508;52.512;13.450;2023-07-22T00:15:54;8.33;;;7.80;;
50555;SDS011;36508;52.512;13.450;2023-07-22T00:18:20;7.10;;;6.70;;
50555;SDS011;36508;52.512;13.450;2023-07-22T00:20:46;7.60;;;7.10;;
50555;SDS011;36508;52.512;13.450;2023-07-22T00:23:12;7.27;;;6.57;;
50555;SDS011;36508;52.512;13.450;2023-07-22T00:25:40;10.13;;;9.20;;
50555;SDS011;36508;52.512;13.450;2023-07-22T00:28:06;6.97;;;6.37;;
50555;SDS011;36508;52.512;13.450;2023-07-22T00:30:31;16.90;;;15.37;;
50555;SDS011;36508;52.512;13.450;2023-07-22T00:32:57;7.70;;;7.00;;
50555;SDS011;36508;52.512;13.450;2023-07-22T00:35:23;12.73;;;11.63;;
50555;SDS011;36508;52.512;13.450;2023-07-22T00:37:48;6.80;;;6.40;;
50555;SDS011;36508;52.512;13.450;2023-07-22T00:40:14;8.60;;;8.10;;
50555;SDS011;36508;52.512;13.450;2023-07-22T00:42:40;7.37;;;6.77;;
50555;SDS011;36508;52.512;13.450;2023-07-22T00:45:06;8.90;;;8.30;;
50555;SDS011;36508;52.512;13.450;2023-07-22T00:47:40;9.40;;;8.80;;
50555;SDS011;36508;52.512;13.450;2023-07-22T00:50:06;8.73;;;8.23;;
50555;SDS011;36508;52.512;13.450;2023-07-22T00:52:36;7.70;;;7.30;;
50555;SDS011;36508;52.512;13.450;2023-07-22T00:55:03;7.20;;;6.60;;
50555;SDS011;36508;52.512;13.450;2023-07-22T00:57:30;7.67;;;7.10;;
50555;SDS011;36508;52.512;13.450;2023-07-22T00:59:55;7.90;;;7.40;;
50555;SDS011;36508;52.512;13.450;2023-07-22T01:02:21;7.97;;;7.47;;
50555;SDS011;36508;52.512;13.450;2023-07-22T01:04:48;8.10;;;7.50;;
50555;SDS011;36508;52.512;13.450;2023-07-22T01:07:15;8.33;;;7.83;;
50555;SDS011;36508;52.512;13.450;2023-07-22T01:09:41;7.63;;;7.23;;
50555;SDS011;36508;52.512;13.450;2023-07-22T01:12:07;9.10;;;8.47;;
50555;SDS011;36508;52.512;13.450;2023-07-22T01:14:34;7.57;;;7.17;;
50555;SDS011;36508;52.512;13.450;2023-07-22T01:17:03;8.93;;;8.33;;
50555;SDS011;36508;52.512;13.450;2023-07-22T01:19:30;8.27;;;7.67;;
50555;SDS011;36508;52.512;13.450;2023-07-22T01:22:00;9.43;;;8.80;;
50555;SDS011;36508;52.512;13.450;2023-07-22T01:24:30;10.33;;;9.63;;
50555;SDS011;36508;52.512;13.450;2023-07-22T01:26:57;10.30;;;9.50;;
50555;SDS011;36508;52.512;13.450;2023-07-22T01:29:23;9.77;;;9.17;;
50555;SDS011;36508;52.512;13.450;2023-07-22T01:31:50;8.67;;;7.90;;
50555;SDS011;36508;52.512;13.450;2023-07-22T01:34:17;23.37;;;9.43;;
50555;SDS011;36508;52.512;13.450;2023-07-22T01:36:44;7.50;;;7.00;;
50555;SDS011;36508;52.512;13.450;2023-07-22T01:39:12;8.50;;;8.00;;
50555;SDS011;36508;52.512;13.450;2023-07-22T01:41:39;8.37;;;7.77;;
50555;SDS011;36508;52.512;13.450;2023-07-22T01:44:04;8.70;;;8.20;;
50555;SDS011;36508;52.512;13.450;2023-07-22T01:46:30;7.47;;;6.97;;
50555;SDS011;36508;52.512;13.450;2023-07-22T01:48:56;9.57;;;8.97;;
50555;SDS011;36508;52.512;13.450;2023-07-22T01:51:21;6.80;;;6.47;;
50555;SDS011;36508;52.512;13.450;2023-07-22T01:53:47;9.23;;;8.40;;
50555;SDS011;36508;52.512;13.450;2023-07-22T01:56:14;7.60;;;6.93;;
50555;SDS011;36508;52.512;13.450;2023-07-22T01:58:41;10.50;;;9.70;;
50555;SDS011;36508;52.512;13.450;2023-07-22T02:01:07;8.20;;;7.50;;
50555;SDS011;36508;52.512;13.450;2023-07-22T02:03:32;8.97;;;8.40;;
50555;SDS011;36508;52.512;13.450;2023-07-22T02:06:02;8.33;;;7.83;;
50555;SDS011;36508;52.512;13.450;2023-07-22T02:08:28;8.50;;;8.03;;
50555;SDS011;36508;52.512;13.450;2023-07-22T02:10:54;7.40;;;6.90;;
50555;SDS011;36508;52.512;13.450;2023-07-22T02:13:19;9.37;;;8.67;;
50555;SDS011;36508;52.512;13.450;2023-07-22T02:15:45;8.70;;;8.10;;
50555;SDS011;36508;52.512;13.450;2023-07-22T02:18:11;9.07;;;8.30;;
50555;SDS011;36508;52.512;13.450;2023-07-22T02:20:37;8.37;;;7.77;;
50555;SDS011;36508;52.512;13.450;2023-07-22T02:23:03;9.40;;;8.60;;
50555;SDS011;36508;52.512;13.450;2023-07-22T02:25:29;7.87;;;7.37;;
50555;SDS011;36508;52.512;13.450;2023-07-22T02:27:55;8.10;;;7.50;;
50555;SDS011;36508;52.512;13.450;2023-07-22T02:30:20;8.63;;;8.00;;
50555;SDS011;36508;52.512;13.450;2023-07-22T02:32:46;6.53;;;6.10;;
50555;SDS011;36508;52.512;13.450;2023-07-22T02:35:11;7.27;;;6.87;;
50555;SDS011;36508;52.512;13.450;2023-07-22T02:37:37;5.83;;;5.43;;
50555;SDS011;36508;52.512;13.450;2023-07-22T02:40:04;8.40;;;7.70;;
50555;SDS011;36508;52.512;13.450;2023-07-22T02:42:36;7.53;;;6.93;;
50555;SDS011;36508;52.512;13.450;2023-07-22T02:45:02;8.33;;;7.70;;
50555;SDS011;36508;52.512;13.450;2023-07-22T02:47:29;8.27;;;7.77;;
50555;SDS011;36508;52.512;13.450;2023-07-22T02:49:57;7.47;;;6.97;;
50555;SDS011;36508;52.512;13.450;2023-07-22T02:52:22;8.40;;;7.80;;
50555;SDS011;36508;52.512;13.450;2023-07-22T02:57:49;8.13;;;7.33;;
50555;SDS011;36508;52.512;13.450;2023-07-22T03:00:17;7.37;;;6.73;;
50555;SDS011;36508;52.512;13.450;2023-07-22T03:02:48;6.13;;;5.73;;
50555;SDS011;36508;52.512;13.450;2023-07-22T03:05:17;6.90;;;6.30;;
50555;SDS011;36508;52.512;13.450;2023-07-22T03:07:43;6.90;;;6.50;;
50555;SDS011;36508;52.512;13.450;2023-07-22T03:10:09;7.13;;;6.77;;
50555;SDS011;36508;52.512;13.450;2023-07-22T03:12:35;7.30;;;6.80;;
50555;SDS011;36508;52.512;13.450;2023-07-22T03:15:01;6.80;;;6.33;;
50555;SDS011;36508;52.512;13.450;2023-07-22T03:17:28;7.03;;;6.37;;
50555;SDS011;36508;52.512;13.450;2023-07-22T03:19:54;6.50;;;6.03;;
50555;SDS011;36508;52.512;13.450;2023-07-22T03:22:20;6.80;;;6.30;;
50555;SDS011;36508;52.512;13.450;2023-07-22T03:24:46;6.37;;;5.87;;
50555;SDS011;36508;52.512;13.450;2023-07-22T03:27:11;6.30;;;5.80;;
50555;SDS011;36508;52.512;13.450;2023-07-22T03:29:38;6.20;;;5.90;;
50555;SDS011;36508;52.512;13.450;2023-07-22T03:32:04;6.07;;;5.70;;
50555;SDS011;36508;52.512;13.450;2023-07-22T03:34:30;6.53;;;5.90;;
50555;SDS011;36508;52.512;13.450;2023-07-22T03:36:57;6.03;;;5.50;;
50555;SDS011;36508;52.512;13.450;2023-07-22T03:39:25;7.07;;;6.30;;
50555;SDS011;36508;52.512;13.450;2023-07-22T03:41:51;5.83;;;5.53;;
50555;SDS011;36508;52.512;13.450;2023-07-22T03:44:16;7.30;;;6.67;;
50555;SDS011;36508;52.512;13.450;2023-07-22T03:46:42;6.83;;;6.33;;
50555;SDS011;36508;52.512;13.450;2023-07-22T03:49:08;6.40;;;6.00;;
50555;SDS011;36508;52.512;13.450;2023-07-22T03:51:33;6.17;;;5.63;;
50555;SDS011;36508;52.512;13.450;2023-07-22T03:53:59;7.00;;;4.57;;
50555;SDS011;36508;52.512;13.450;2023-07-22T03:56:24;8.07;;;7.47;;
50555;SDS011;36508;52.512;13.450;2023-07-22T03:58:51;7.13;;;6.73;;
50555;SDS011;36508;52.512;13.450;2023-07-22T04:01:17;7.00;;;6.30;;
50555;SDS011;36508;52.512;13.450;2023-07-22T04:03:43;6.80;;;6.40;;
50555;SDS011;36508;52.512;13.450;2023-07-22T04:06:08;6.40;;;6.00;;
50555;SDS011;36508;52.512;13.450;2023-07-22T04:08:34;6.97;;;6.57;;
50555;SDS011;36508;52.512;13.450;2023-07-22T04:11:00;7.60;;;6.47;;
50555;SDS011;36508;52.512;13.450;2023-07-22T04:13:26;6.63;;;6.10;;
50555;SDS011;36508;52.512;13.450;2023-07-22T04:15:52;6.47;;;5.87;;
50555;SDS011;36508;52.512;13.450;2023-07-22T04:18:18;6.50;;;6.13;;
50555;SDS011;36508;52.512;13.450;2023-07-22T04:20:47;5.83;;;5.53;;
50555;SDS011;36508;52.512;13.450;2023-07-22T04:23:13;6.70;;;6.30;;
50555;SDS011;36508;52.512;13.450;2023-07-22T04:25:39;5.73;;;5.23;;
50555;SDS011;36508;52.512;13.450;2023-07-22T04:28:06;6.70;;;6.20;;
50555;SDS011;36508;52.512;13.450;2023-07-22T04:30:32;7.30;;;6.20;;
50555;SDS011;36508;52.512;13.450;2023-07-22T04:32:58;6.70;;;6.03;;
50555;SDS011;36508;52.512;13.450;2023-07-22T04:35:24;4.40;;;4.10;;
50555;SDS011;36508;52.512;13.450;2023-07-22T04:37:49;6.20;;;5.80;;
50555;SDS011;36508;52.512;13.450;2023-07-22T04:40:15;6.33;;;5.93;;
50555;SDS011;36508;52.512;13.450;2023-07-22T04:42:43;6.90;;;6.30;;
50555;SDS011;36508;52.512;13.450;2023-07-22T04:45:09;5.83;;;5.43;;
50555;SDS011;36508;52.512;13.450;2023-07-22T04:47:36;6.50;;;6.10;;
50555;SDS011;36508;52.512;13.450;2023-07-22T04:50:06;8.60;;;8.00;;
50555;SDS011;36508;52.512;13.450;2023-07-22T04:52:34;6.83;;;6.27;;
50555;SDS011;36508;52.512;13.450;2023-07-22T04:55:00;6.77;;;6.17;;
50555;SDS011;36508;52.512;13.450;2023-07-22T04:57:30;4.87;;;4.63;;
50555;SDS011;36508;52.512;13.450;2023-07-22T04:59:55;6.17;;;5.67;;
50555;SDS011;36508;52.512;13.450;2023-07-22T05:02:21;6.33;;;5.87;;
50555;SDS011;36508;52.512;13.450;2023-07-22T05:04:46;6.67;;;6.17;;
50555;SDS011;36508;52.512;13.450;2023-07-22T05:07:12;6.70;;;6.37;;
50555;SDS011;36508;52.512;13.450;2023-07-22T05:09:37;7.17;;;6.67;;
50555;SDS011;36508;52.512;13.450;2023-07-22T05:12:03;6.20;;;5.80;;
50555;SDS011;36508;52.512;13.450;2023-07-22T05:14:29;7.30;;;6.47;;
50555;SDS011;36508;52.512;13.450;2023-07-22T05:16:54;6.70;;;6.30;;
50555;SDS011;36508;52.512;13.450;2023-07-22T05:19:20;8.13;;;7.43;;
50555;SDS011;36508;52.512;13.450;2023-07-22T05:21:46;7.13;;;6.63;;
50555;SDS011;36508;52.512;13.450;2023-07-22T05:24:11;7.63;;;7.10;;
50555;SDS011;36508;52.512;13.450;2023-07-22T05:26:37;8.53;;;7.73;;
50555;SDS011;36508;52.512;13.450;2023-07-22T05:29:03;8.03;;;7.33;;
50555;SDS011;36508;52.512;13.450;2023-07-22T05:31:28;7.87;;;7.20;;
50555;SDS011;36508;52.512;13.450;2023-07-22T05:33:54;9.23;;;7.70;;
50555;SDS011;36508;52.512;13.450;2023-07-22T05:36:20;9.97;;;9.17;;
50555;SDS011;36508;52.512;13.450;2023-07-22T05:38:46;6.80;;;6.33;;
50555;SDS011;36508;52.512;13.450;2023-07-22T05:41:11;8.90;;;8.30;;
50555;SDS011;36508;52.512;13.450;2023-07-22T05:43:37;9.40;;;8.67;;
50555;SDS011;36508;52.512;13.450;2023-07-22T05:46:03;9.20;;;8.50;;
50555;SDS011;36508;52.512;13.450;2023-07-22T05:48:28;8.67;;;8.07;;
50555;SDS011;36508;52.512;13.450;2023-07-22T05:50:54;8.20;;;7.50;;
50555;SDS011;36508;52.512;13.450;2023-07-22T05:53:20;8.90;;;8.10;;
50555;SDS011;36508;52.512;13.450;2023-07-22T05:55:45;9.97;;;9.20;;
50555;SDS011;36508;52.512;13.450;2023-07-22T05:58:17;10.77;;;9.80;;
50555;SDS011;36508;52.512;13.450;2023-07-22T06:00:43;10.60;;;9.70;;
50555;SDS011;36508;52.512;13.450;2023-07-22T06:03:09;7.50;;;6.93;;
50555;SDS011;36508;52.512;13.450;2023-07-22T06:05:34;9.70;;;8.17;;
50555;SDS011;36508;52.512;13.450;2023-07-22T06:08:00;10.33;;;9.53;;
50555;SDS011;36508;52.512;13.450;2023-07-22T06:10:25;11.90;;;10.20;;
50555;SDS011;36508;52.512;13.450;2023-07-22T06:12:51;10.60;;;9.53;;
50555;SDS011;36508;52.512;13.450;2023-07-22T06:15:17;8.07;;;7.37;;
50555;SDS011;36508;52.512;13.450;2023-07-22T06:17:42;9.50;;;8.80;;
50555;SDS011;36508;52.512;13.450;2023-07-22T06:20:08;10.33;;;9.43;;
50555;SDS011;36508;52.512;13.450;2023-07-22T06:22:34;9.77;;;9.07;;
50555;SDS011;36508;52.512;13.450;2023-07-22T06:25:00;8.53;;;7.83;;
50555;SDS011;36508;52.512;13.450;2023-07-22T06:27:25;9.50;;;8.80;;
50555;SDS011;36508;52.512;13.450;2023-07-22T06:29:51;8.90;;;8.20;;
50555;SDS011;36508;52.512;13.450;2023-07-22T06:32:16;9.57;;;8.77;;
50555;SDS011;36508;52.512;13.450;2023-07-22T06:34:42;8.27;;;7.67;;
50555;SDS011;36508;52.512;13.450;2023-07-22T06:37:07;8.70;;;7.03;;
50555;SDS011;36508;52.512;13.450;2023-07-22T06:39:33;8.37;;;7.70;;
50555;SDS011;36508;52.512;13.450;2023-07-22T06:41:58;8.43;;;7.63;;
50555;SDS011;36508;52.512;13.450;2023-07-22T06:44:24;12.30;;;7.90;;
50555;SDS011;36508;52.512;13.450;2023-07-22T06:46:49;6.97;;;6.33;;
50555;SDS011;36508;52.512;13.450;2023-07-22T06:49:15;11.70;;;7.70;;
50555;SDS011;36508;52.512;13.450;2023-07-22T06:51:41;7.97;;;7.07;;
50555;SDS011;36508;52.512;13.450;2023-07-22T06:54:06;10.33;;;9.10;;
50555;SDS011;36508;52.512;13.450;2023-07-22T06:56:32;7.87;;;7.17;;
50555;SDS011;36508;52.512;13.450;2023-07-22T06:58:58;8.53;;;7.93;;
50555;SDS011;36508;52.512;13.450;2023-07-22T07:01:23;9.20;;;6.03;;
50555;SDS011;36508;52.512;13.450;2023-07-22T07:03:49;8.23;;;7.60;;
50555;SDS011;36508;52.512;13.450;2023-07-22T07:06:15;5.87;;;4.60;;
50555;SDS011;36508;52.512;13.450;2023-07-22T07:08:41;6.30;;;5.90;;
50555;SDS011;36508;52.512;13.450;2023-07-22T07:11:06;6.07;;;5.47;;
50555;SDS011;36508;52.512;13.450;2023-07-22T07:13:32;5.40;;;4.97;;
50555;SDS011;36508;52.512;13.450;2023-07-22T07:16:09;3.80;;;3.50;;
50555;SDS011;36508;52.512;13.450;2023-07-22T07:18:54;7.03;;;5.00;;
50555;SDS011;36508;52.512;13.450;2023-07-22T07:21:20;4.60;;;4.20;;
50555;SDS011;36508;52.512;13.450;2023-07-22T07:23:46;4.73;;;4.43;;
50555;SDS011;36508;52.512;13.450;2023-07-22T07:26:12;5.00;;;4.60;;
50555;SDS011;36508;52.512;13.450;2023-07-22T07:28:37;6.30;;;5.80;;
50555;SDS011;36508;52.512;13.450;2023-07-22T07:31:03;5.00;;;4.50;;
50555;SDS011;36508;52.512;13.450;2023-07-22T07:33:29;6.33;;;4.67;;
50555;SDS011;36508;52.512;13.450;2023-07-22T07:35:54;5.63;;;4.67;;
50555;SDS011;36508;52.512;13.450;2023-07-22T07:38:20;5.40;;;4.93;;
50555;SDS011;36508;52.512;13.450;2023-07-22T07:40:45;6.70;;;5.73;;
50555;SDS011;36508;52.512;13.450;2023-07-22T07:43:11;6.00;;;5.07;;
50555;SDS011;36508;52.512;13.450;2023-07-22T07:45:38;8.97;;;5.40;;
50555;SDS011;36508;52.512;13.450;2023-07-22T07:48:04;5.90;;;5.40;;
50555;SDS011;36508;52.512;13.450;2023-07-22T07:50:31;5.10;;;4.70;;
50555;SDS011;36508;52.512;13.450;2023-07-22T07:52:57;6.13;;;5.57;;
50555;SDS011;36508;52.512;13.450;2023-07-22T07:55:24;5.30;;;4.70;;
50555;SDS011;36508;52.512;13.450;2023-07-22T07:57:50;5.53;;;4.93;;
50555;SDS011;36508;52.512;13.450;2023-07-22T08:00:16;5.97;;;5.37;;
50555;SDS011;36508;52.512;13.450;2023-07-22T08:02:41;5.53;;;5.03;;
50555;SDS011;36508;52.512;13.450;2023-07-22T08:05:07;6.53;;;5.93;;
50555;SDS011;36508;52.512;13.450;2023-07-22T08:07:33;6.17;;;4.53;;
50555;SDS011;36508;52.512;13.450;2023-07-22T08:10:00;6.23;;;5.40;;
50555;SDS011;36508;52.512;13.450;2023-07-22T08:12:28;5.60;;;5.20;;
50555;SDS011;36508;52.512;13.450;2023-07-22T08:14:55;5.47;;;4.37;;
50555;SDS011;36508;52.512;13.450;2023-07-22T08:17:22;5.27;;;4.97;;
50555;SDS011;36508;52.512;13.450;2023-07-22T08:19:48;4.47;;;3.87;;
50555;SDS011;36508;52.512;13.450;2023-07-22T08:22:15;5.47;;;5.00;;
50555;SDS011;36508;52.512;13.450;2023-07-22T08:24:40;7.13;;;5.60;;
50555;SDS011;36508;52.512;13.450;2023-07-22T08:27:06;6.00;;;5.60;;
50555;SDS011;36508;52.512;13.450;2023-07-22T08:29:31;8.03;;;6.47;;
50555;SDS011;36508;52.512;13.450;2023-07-22T08:31:57;4.97;;;4.67;;
50555;SDS011;36508;52.512;13.450;2023-07-22T08:34:23;5.50;;;5.10;;
50555;SDS011;36508;52.512;13.450;2023-07-22T08:36:49;5.30;;;4.80;;
50555;SDS011;36508;52.512;13.450;2023-07-22T08:39:14;5.33;;;4.90;;
50555;SDS011;36508;52.512;13.450;2023-07-22T08:41:40;5.27;;;4.87;;
50555;SDS011;36508;52.512;13.450;2023-07-22T08:44:12;10.03;;;5.60;;
50555;SDS011;36508;52.512;13.450;2023-07-22T08:46:40;7.53;;;5.27;;
50555;SDS011;36508;52.512;13.450;2023-07-22T08:49:07;5.07;;;4.67;;
50555;SDS011;36508;52.512;13.450;2023-07-22T08:51:34;8.10;;;6.87;;
50555;SDS011;36508;52.512;13.450;2023-07-22T08:54:02;7.00;;;4.80;;
50555;SDS011;36508;52.512;13.450;2023-07-22T08:56:28;5.73;;;5.13;;
50555;SDS011;36508;52.512;13.450;2023-07-22T08:58:54;5.50;;;5.03;;
50555;SDS011;36508;52.512;13.450;2023-07-22T09:01:20;4.97;;;4.50;;
50555;SDS011;36508;52.512;13.450;2023-07-22T09:03:48;6.40;;;5.53;;
50555;SDS011;36508;52.512;13.450;2023-07-22T09:06:18;5.97;;;5.07;;
50555;SDS011;36508;52.512;13.450;2023-07-22T09:08:44;4.97;;;4.23;;
50555;SDS011;36508;52.512;13.450;2023-07-22T09:11:10;4.40;;;4.07;;
50555;SDS011;36508;52.512;13.450;2023-07-22T09:13:36;5.67;;;5.27;;
50555;SDS011;36508;52.512;13.450;2023-07-22T09:16:05;4.47;;;4.07;;
50555;SDS011;36508;52.512;13.450;2023-07-22T09:18:34;4.70;;;4.30;;
50555;SDS011;36508;52.512;13.450;2023-07-22T09:21:00;4.90;;;4.60;;
50555;SDS011;36508;52.512;13.450;2023-07-22T09:23:34;5.60;;;4.90;;
50555;SDS011;36508;52.512;13.450;2023-07-22T09:26:13;5.03;;;4.63;;
50555;SDS011;36508;52.512;13.450;2023-07-22T09:28:47;4.80;;;4.33;;
50555;SDS011;36508;52.512;13.450;2023-07-22T09:31:18;4.90;;;4.60;;
50555;SDS011;36508;52.512;13.450;2023-07-22T09:33:45;5.23;;;4.90;;
50555;SDS011;36508;52.512;13.450;2023-07-22T09:36:11;5.23;;;4.83;;
50555;SDS011;36508;52.512;13.450;2023-07-22T09:38:37;5.60;;;5.20;;
50555;SDS011;36508;52.512;13.450;2023-07-22T09:41:02;5.23;;;4.87;;
50555;SDS011;36508;52.512;13.450;2023-07-22T09:43:29;5.97;;;5.37;;
50555;SDS011;36508;52.512;13.450;2023-07-22T09:45:55;5.20;;;4.77;;
50555;SDS011;36508;52.512;13.450;2023-07-22T09:48:21;3.90;;;3.50;;
50555;SDS011;36508;52.512;13.450;2023-07-22T09:50:55;4.47;;;4.17;;
50555;SDS011;36508;52.512;13.450;2023-07-22T09:53:24;7.03;;;6.43;;
50555;SDS011;36508;52.512;13.450;2023-07-22T09:55:49;4.60;;;4.30;;
50555;SDS011;36508;52.512;13.450;2023-07-22T09:58:17;4.70;;;4.30;;
50555;SDS011;36508;52.512;13.450;2023-07-22T10:00:46;3.87;;;3.57;;
50555;SDS011;36508;52.512;13.450;2023-07-22T10:03:16;3.97;;;3.57;;
50555;SDS011;36508;52.512;13.450;2023-07-22T10:05:44;3.20;;;3.00;;
50555;SDS011;36508;52.512;13.450;2023-07-22T10:08:13;4.20;;;3.90;;
50555;SDS011;36508;52.512;13.450;2023-07-22T10:10:44;4.40;;;4.00;;
50555;SDS011;36508;52.512;13.450;2023-07-22T10:13:10;3.90;;;3.60;;
50555;SDS011;36508;52.512;13.450;2023-07-22T10:15:36;4.90;;;4.50;;
50555;SDS011;36508;52.512;13.450;2023-07-22T10:18:02;9.37;;;4.43;;
50555;SDS011;36508;52.512;13.450;2023-07-22T10:20:32;3.80;;;3.50;;
50555;SDS011;36508;52.512;13.450;2023-07-22T10:23:01;3.90;;;3.63;;
50555;SDS011;36508;52.512;13.450;2023-07-22T10:25:29;4.23;;;3.93;;
50555;SDS011;36508;52.512;13.450;2023-07-22T10:30:47;4.20;;;3.90;;
50555;SDS011;36508;52.512;13.450;2023-07-22T10:33:12;4.73;;;3.90;;
50555;SDS011;36508;52.512;13.450;2023-07-22T10:35:42;4.10;;;3.80;;
50555;SDS011;36508;52.512;13.450;2023-07-22T10:38:12;3.50;;;3.20;;
50555;SDS011;36508;52.512;13.450;2023-07-22T10:40:47;5.00;;;4.30;;
50555;SDS011;36508;52.512;13.450;2023-07-22T10:43:15;4.17;;;3.87;;
50555;SDS011;36508;52.512;13.450;2023-07-22T10:45:43;4.77;;;3.60;;
50555;SDS011;36508;52.512;13.450;2023-07-22T10:48:16;3.40;;;3.20;;
50555;SDS011;36508;52.512;13.450;2023-07-22T10:50:46;4.13;;;3.70;;
50555;SDS011;36508;52.512;13.450;2023-07-22T10:53:27;4.90;;;4.20;;
50555;SDS011;36508;52.512;13.450;2023-07-22T10:56:08;6.53;;;3.60;;
50555;SDS011;36508;52.512;13.450;2023-07-22T11:11:52;4.17;;;3.87;;
50555;SDS011;36508;52.512;13.450;2023-07-22T11:17:14;3.40;;;3.20;;
50555;SDS011;36508;52.512;13.450;2023-07-22T11:19:40;5.17;;;4.40;;
50555;SDS011;36508;52.512;13.450;2023-07-22T11:22:06;5.40;;;5.00;;
50555;SDS011;36508;52.512;13.450;2023-07-22T11:24:33;4.63;;;4.10;;
50555;SDS011;36508;52.512;13.450;2023-07-22T11:27:01;4.40;;;4.10;;
50555;SDS011;36508;52.512;13.450;2023-07-22T11:29:31;4.80;;;4.50;;
50555;SDS011;36508;52.512;13.450;2023-07-22T11:31:57;4.83;;;4.43;;
50555;SDS011;36508;52.512;13.450;2023-07-22T11:34:23;6.00;;;5.50;;
50555;SDS011;36508;52.512;13.450;2023-07-22T11:36:50;4.63;;;4.30;;
50555;SDS011;36508;52.512;13.450;2023-07-22T11:39:20;5.30;;;5.00;;
50555;SDS011;36508;52.512;13.450;2023-07-22T11:41:47;4.77;;;4.47;;
50555;SDS011;36508;52.512;13.450;2023-07-22T11:44:15;4.97;;;4.60;;
50555;SDS011;36508;52.512;13.450;2023-07-22T11:52:02;5.17;;;4.70;;
50555;SDS011;36508;52.512;13.450;2023-07-22T11:54:30;4.27;;;3.97;;
50555;SDS011;36508;52.512;13.450;2023-07-22T11:56:58;5.63;;;5.33;;
50555;SDS011;36508;52.512;13.450;2023-07-22T11:59:47;5.20;;;4.47;;
50555;SDS011;36508;52.512;13.450;2023-07-22T12:02:18;5.23;;;4.57;;
50555;SDS011;36508;52.512;13.450;2023-07-22T12:04:51;5.30;;;5.00;;
50555;SDS011;36508;52.512;13.450;2023-07-22T12:07:32;6.33;;;4.60;;
50555;SDS011;36508;52.512;13.450;2023-07-22T12:09:59;4.90;;;4.43;;
50555;SDS011;36508;52.512;13.450;2023-07-22T12:12:45;5.23;;;4.83;;
50555;SDS011;36508;52.512;13.450;2023-07-22T12:15:12;4.07;;;3.77;;
50555;SDS011;36508;52.512;13.450;2023-07-22T12:17:48;3.47;;;3.20;;
50555;SDS011;36508;52.512;13.450;2023-07-22T12:20:19;6.60;;;5.10;;
50555;SDS011;36508;52.512;13.450;2023-07-22T12:22:48;5.83;;;5.33;;
50555;SDS011;36508;52.512;13.450;2023-07-22T12:25:13;5.00;;;4.70;;
50555;SDS011;36508;52.512;13.450;2023-07-22T12:27:39;4.47;;;4.17;;
50555;SDS011;36508;52.512;13.450;2023-07-22T12:30:06;4.03;;;3.77;;
50555;SDS011;36508;52.512;13.450;2023-07-22T12:32:34;4.90;;;4.57;;
50555;SDS011;36508;52.512;13.450;2023-07-22T12:34:59;5.33;;;4.93;;
50555;SDS011;36508;52.512;13.450;2023-07-22T12:37:25;4.07;;;3.87;;
50555;SDS011;36508;52.512;13.450;2023-07-22T12:39:51;5.27;;;4.87;;
50555;SDS011;36508;52.512;13.450;2023-07-22T12:42:16;4.77;;;4.47;;
50555;SDS011;36508;52.512;13.450;2023-07-22T12:44:42;5.87;;;5.40;;
50555;SDS011;36508;52.512;13.450;2023-07-22T12:47:08;5.37;;;4.97;;
50555;SDS011;36508;52.512;13.450;2023-07-22T12:49:33;4.43;;;4.03;;
50555;SDS011;36508;52.512;13.450;2023-07-22T12:51:59;7.70;;;5.77;;
50555;SDS011;36508;52.512;13.450;2023-07-22T12:54:29;4.13;;;3.93;;
50555;SDS011;36508;52.512;13.450;2023-07-22T12:56:55;4.57;;;4.27;;
50555;SDS011;36508;52.512;13.450;2023-07-22T12:59:21;5.10;;;4.77;;
50555;SDS011;36508;52.512;13.450;2023-07-22T13:01:47;5.40;;;5.07;;
50555;SDS011;36508;52.512;13.450;2023-07-22T13:04:12;5.37;;;4.80;;
50555;SDS011;36508;52.512;13.450;2023-07-22T13:06:38;4.97;;;4.57;;
50555;SDS011;36508;52.512;13.450;2023-07-22T13:09:03;5.63;;;5.23;;
50555;SDS011;36508;52.512;13.450;2023-07-22T13:11:29;6.47;;;6.07;;
50555;SDS011;36508;52.512;13.450;2023-07-22T13:13:55;6.00;;;5.60;;
50555;SDS011;36508;52.512;13.450;2023-07-22T13:16:20;6.07;;;5.67;;
50555;SDS011;36508;52.512;13.450;2023-07-22T13:18:46;6.80;;;6.20;;
50555;SDS011;36508;52.512;13.450;2023-07-22T13:21:11;5.27;;;4.97;;
50555;SDS011;36508;52.512;13.450;2023-07-22T13:23:37;6.47;;;5.00;;
50555;SDS011;36508;52.512;13.450;2023-07-22T13:26:02;5.87;;;5.37;;
50555;SDS011;36508;52.512;13.450;2023-07-22T13:28:28;5.70;;;5.30;;
50555;SDS011;36508;52.512;13.450;2023-07-22T13:30:53;6.50;;;5.90;;
50555;SDS011;36508;52.512;13.450;2023-07-22T13:33:19;4.90;;;4.60;;
50555;SDS011;36508;52.512;13.450;2023-07-22T13:35:45;7.90;;;7.37;;
50555;SDS011;36508;52.512;13.450;2023-07-22T13:38:10;6.20;;;5.60;;
50555;SDS011;36508;52.512;13.450;2023-07-22T13:40:36;7.00;;;6.40;;
50555;SDS011;36508;52.512;13.450;2023-07-22T13:43:02;4.67;;;4.37;;
50555;SDS011;36508;52.512;13.450;2023-07-22T13:45:27;5.90;;;5.50;;
50555;SDS011;36508;52.512;13.450;2023-07-22T13:47:53;5.40;;;5.00;;
50555;SDS011;36508;52.512;13.450;2023-07-22T13:50:18;5.63;;;5.23;;
50555;SDS011;36508;52.512;13.450;2023-07-22T13:52:44;6.00;;;5.30;;
50555;SDS011;36508;52.512;13.450;2023-07-22T13:55:09;5.73;;;5.23;;
50555;SDS011;36508;52.512;13.450;2023-07-22T13:57:47;5.07;;;4.77;;
50555;SDS011;36508;52.512;13.450;2023-07-22T14:00:13;6.73;;;5.93;;
50555;SDS011;36508;52.512;13.450;2023-07-22T14:02:39;4.20;;;4.00;;
50555;SDS011;36508;52.512;13.450;2023-07-22T14:05:05;5.30;;;4.90;;
50555;SDS011;36508;52.512;13.450;2023-07-22T14:07:31;4.33;;;4.03;;
50555;SDS011;36508;52.512;13.450;2023-07-22T14:09:57;5.90;;;5.60;;
50555;SDS011;36508;52.512;13.450;2023-07-22T14:12:22;4.10;;;3.90;;
50555;SDS011;36508;52.512;13.450;2023-07-22T14:14:48;9.17;;;8.43;;
50555;SDS011;36508;52.512;13.450;2023-07-22T14:17:14;5.50;;;5.17;;
50555;SDS011;36508;52.512;13.450;2023-07-22T14:19:39;5.27;;;4.97;;
50555;SDS011;36508;52.512;13.450;2023-07-22T14:22:05;5.87;;;5.47;;
50555;SDS011;36508;52.512;13.450;2023-07-22T14:24:30;6.07;;;5.67;;
50555;SDS011;36508;52.512;13.450;2023-07-22T14:26:56;7.20;;;4.93;;
50555;SDS011;36508;52.512;13.450;2023-07-22T14:29:22;8.07;;;6.50;;
50555;SDS011;36508;52.512;13.450;2023-07-22T14:31:47;6.30;;;5.90;;
50555;SDS011;36508;52.512;13.450;2023-07-22T14:34:13;6.47;;;6.07;;
50555;SDS011;36508;52.512;13.450;2023-07-22T14:36:38;4.87;;;4.47;;
50555;SDS011;36508;52.512;13.450;2023-07-22T14:39:04;5.53;;;5.13;;
50555;SDS011;36508;52.512;13.450;2023-07-22T14:41:30;5.57;;;5.07;;
50555;SDS011;36508;52.512;13.450;2023-07-22T14:43:55;5.53;;;5.23;;
50555;SDS011;36508;52.512;13.450;2023-07-22T14:46:22;5.47;;;5.07;;
50555;SDS011;36508;52.512;13.450;2023-07-22T14:48:47;5.10;;;4.80;;
50555;SDS011;36508;52.512;13.450;2023-07-22T14:51:13;4.40;;;4.10;;
50555;SDS011;36508;52.512;13.450;2023-07-22T14:53:39;5.27;;;4.80;;
50555;SDS011;36508;52.512;13.450;2023-07-22T14:56:04;5.23;;;5.03;;
50555;SDS011;36508;52.512;13.450;2023-07-22T14:58:32;4.97;;;4.67;;